sensor_id;sensor_type;location;lat;lon;timestamp;temperature;humidity
2889;DHT22;1453;42.708;23.282;2022-08-19T00:00:35;23.90;94.90
2889;DHT22;1453;42.708;23.282;2022-08-19T00:03:02;24.00;94.70
2889;DHT22;1453;42.708;23.282;2022-08-19T00:05:29;24.00;94.50
2889;DHT22;1453;42.708;23.282;2022-08-19T00:07:55;24.00;95.00
2889;DHT22;1453;42.708;23.282;2022-08-19T00:10:21;24.00;95.20
2889;DHT22;1453;42.708;23.282;2022-08-19T00:12:47;24.00;94.90
2889;DHT22;1453;42.708;23.282;2022-08-19T00:15:15;23.90;95.60
2889;DHT22;1453;42.708;23.282;2022-08-19T00:17:44;24.00;95.30
2889;DHT22;1453;42.708;23.282;2022-08-19T00:20:12;24.00;95.10
2889;DHT22;1453;42.708;23.282;2022-08-19T00:22:42;24.10;95.10
2889;DHT22;1453;42.708;23.282;2022-08-19T00:25:09;24.00;96.00
2889;DHT22;1453;42.708;23.282;2022-08-19T00:27:36;23.90;96.30
2889;DHT22;1453;42.708;23.282;2022-08-19T00:30:03;24.00;96.90
2889;DHT22;1453;42.708;23.282;2022-08-19T00:32:30;23.90;97.60
2889;DHT22;1453;42.708;23.282;2022-08-19T00:34:55;23.70;98.20
2889;DHT22;1453;42.708;23.282;2022-08-19T00:37:23;23.70;98.90
2889;DHT22;1453;42.708;23.282;2022-08-19T00:39:51;23.70;99.80
2889;DHT22;1453;42.708;23.282;2022-08-19T00:42:18;23.60;98.70
2889;DHT22;1453;42.708;23.282;2022-08-19T00:44:45;23.50;98.40
2889;DHT22;1453;42.708;23.282;2022-08-19T00:47:11;23.30;99.90
2889;DHT22;1453;42.708;23.282;2022-08-19T00:49:53;23.30;99.90
2889;DHT22;1453;42.708;23.282;2022-08-19T00:52:27;23.20;99.90
2889;DHT22;1453;42.708;23.282;2022-08-19T00:54:57;23.20;99.90
2889;DHT22;1453;42.708;23.282;2022-08-19T00:57:35;23.30;99.90
2889;DHT22;1453;42.708;23.282;2022-08-19T01:00:10;23.20;99.90
2889;DHT22;1453;42.708;23.282;2022-08-19T01:02:39;23.00;99.90
2889;DHT22;1453;42.708;23.282;2022-08-19T01:05:10;22.90;99.90
2889;DHT22;1453;42.708;23.282;2022-08-19T01:07:41;22.70;99.90
2889;DHT22;1453;42.708;23.282;2022-08-19T01:10:12;22.70;99.90
2889;DHT22;1453;42.708;23.282;2022-08-19T01:12:40;22.70;99.90
2889;DHT22;1453;42.708;23.282;2022-08-19T01:15:09;22.50;99.90
2889;DHT22;1453;42.708;23.282;2022-08-19T01:17:38;22.40;99.90
2889;DHT22;1453;42.708;23.282;2022-08-19T01:20:15;22.40;99.90
2889;DHT22;1453;42.708;23.282;2022-08-19T01:22:50;22.30;99.90
2889;DHT22;1453;42.708;23.282;2022-08-19T01:25:38;22.30;99.90
2889;DHT22;1453;42.708;23.282;2022-08-19T01:28:07;22.10;99.90
2889;DHT22;1453;42.708;23.282;2022-08-19T01:30:35;22.00;99.90
2889;DHT22;1453;42.708;23.282;2022-08-19T01:33:02;21.90;99.90
2889;DHT22;1453;42.708;23.282;2022-08-19T01:35:31;21.80;99.90
2889;DHT22;1453;42.708;23.282;2022-08-19T01:38:01;21.80;99.90
2889;DHT22;1453;42.708;23.282;2022-08-19T01:40:35;21.70;99.90
2889;DHT22;1453;42.708;23.282;2022-08-19T01:43:04;21.60;99.90
2889;DHT22;1453;42.708;23.282;2022-08-19T01:45:32;21.50;99.90
2889;DHT22;1453;42.708;23.282;2022-08-19T01:47:59;21.50;99.90
2889;DHT22;1453;42.708;23.282;2022-08-19T01:50:25;21.20;99.90
2889;DHT22;1453;42.708;23.282;2022-08-19T01:52:52;20.90;99.90
2889;DHT22;1453;42.708;23.282;2022-08-19T01:55:20;20.50;99.90
2889;DHT22;1453;42.708;23.282;2022-08-19T01:57:52;20.50;99.90
2889;DHT22;1453;42.708;23.282;2022-08-19T02:00:24;20.80;99.90
2889;DHT22;1453;42.708;23.282;2022-08-19T02:02:51;21.10;99.90
2889;DHT22;1453;42.708;23.282;2022-08-19T02:05:17;21.40;99.90
2889;DHT22;1453;42.708;23.282;2022-08-19T02:07:44;21.50;99.90
2889;DHT22;1453;42.708;23.282;2022-08-19T02:10:13;21.60;99.90
2889;DHT22;1453;42.708;23.282;2022-08-19T02:12:43;21.50;99.90
2889;DHT22;1453;42.708;23.282;2022-08-19T02:15:09;21.70;99.90
2889;DHT22;1453;42.708;23.282;2022-08-19T02:17:35;21.80;99.90
2889;DHT22;1453;42.708;23.282;2022-08-19T02:20:03;21.80;99.90
2889;DHT22;1453;42.708;23.282;2022-08-19T02:22:30;21.80;99.90
2889;DHT22;1453;42.708;23.282;2022-08-19T02:24:56;21.80;99.90
2889;DHT22;1453;42.708;23.282;2022-08-19T02:27:22;21.80;99.90
2889;DHT22;1453;42.708;23.282;2022-08-19T02:29:49;21.70;99.90
2889;DHT22;1453;42.708;23.282;2022-08-19T02:32:16;21.60;99.90
2889;DHT22;1453;42.708;23.282;2022-08-19T02:34:45;21.60;99.90
2889;DHT22;1453;42.708;23.282;2022-08-19T02:37:12;21.40;99.90
2889;DHT22;1453;42.708;23.282;2022-08-19T02:39:57;21.30;99.90
2889;DHT22;1453;42.708;23.282;2022-08-19T02:42:24;21.30;99.90
2889;DHT22;1453;42.708;23.282;2022-08-19T02:44:50;21.20;99.90
2889;DHT22;1453;42.708;23.282;2022-08-19T02:47:17;21.00;99.90
2889;DHT22;1453;42.708;23.282;2022-08-19T02:49:44;20.80;99.90
2889;DHT22;1453;42.708;23.282;2022-08-19T02:52:11;20.90;99.90
2889;DHT22;1453;42.708;23.282;2022-08-19T02:54:37;20.70;99.90
2889;DHT22;1453;42.708;23.282;2022-08-19T02:57:04;20.70;99.90
2889;DHT22;1453;42.708;23.282;2022-08-19T02:59:31;20.70;99.90
2889;DHT22;1453;42.708;23.282;2022-08-19T03:01:57;20.70;99.90
2889;DHT22;1453;42.708;23.282;2022-08-19T03:04:24;20.60;99.90
2889;DHT22;1453;42.708;23.282;2022-08-19T03:06:50;20.70;99.90
2889;DHT22;1453;42.708;23.282;2022-08-19T03:09:17;20.70;99.90
2889;DHT22;1453;42.708;23.282;2022-08-19T03:11:44;20.70;99.90
2889;DHT22;1453;42.708;23.282;2022-08-19T03:14:10;20.70;99.90
2889;DHT22;1453;42.708;23.282;2022-08-19T03:16:46;20.70;99.90
2889;DHT22;1453;42.708;23.282;2022-08-19T03:19:15;20.60;99.90
2889;DHT22;1453;42.708;23.282;2022-08-19T03:21:44;20.60;99.90
2889;DHT22;1453;42.708;23.282;2022-08-19T03:24:10;20.40;99.90
2889;DHT22;1453;42.708;23.282;2022-08-19T03:26:46;20.20;99.90
2889;DHT22;1453;42.708;23.282;2022-08-19T03:29:13;20.20;99.90
2889;DHT22;1453;42.708;23.282;2022-08-19T03:31:41;20.30;99.90
2889;DHT22;1453;42.708;23.282;2022-08-19T03:34:10;20.20;99.90
2889;DHT22;1453;42.708;23.282;2022-08-19T03:36:42;20.00;99.90
2889;DHT22;1453;42.708;23.282;2022-08-19T03:39:10;19.90;99.90
2889;DHT22;1453;42.708;23.282;2022-08-19T03:41:39;20.20;99.90
2889;DHT22;1453;42.708;23.282;2022-08-19T03:44:07;20.30;99.90
2889;DHT22;1453;42.708;23.282;2022-08-19T03:46:34;20.60;99.90
2889;DHT22;1453;42.708;23.282;2022-08-19T03:49:03;20.60;99.90
2889;DHT22;1453;42.708;23.282;2022-08-19T03:51:38;20.60;99.90
2889;DHT22;1453;42.708;23.282;2022-08-19T03:54:07;20.60;99.90
2889;DHT22;1453;42.708;23.282;2022-08-19T03:56:35;20.60;99.90
2889;DHT22;1453;42.708;23.282;2022-08-19T03:59:03;20.50;99.90
2889;DHT22;1453;42.708;23.282;2022-08-19T04:01:30;20.60;99.90
2889;DHT22;1453;42.708;23.282;2022-08-19T04:03:57;20.70;99.90
2889;DHT22;1453;42.708;23.282;2022-08-19T04:06:27;20.70;99.90
2889;DHT22;1453;42.708;23.282;2022-08-19T04:08:58;20.80;99.90
2889;DHT22;1453;42.708;23.282;2022-08-19T04:11:29;20.90;99.90
2889;DHT22;1453;42.708;23.282;2022-08-19T04:14:20;20.90;99.90
2889;DHT22;1453;42.708;23.282;2022-08-19T04:16:48;21.00;99.90
2889;DHT22;1453;42.708;23.282;2022-08-19T04:19:15;21.00;99.90
2889;DHT22;1453;42.708;23.282;2022-08-19T04:21:44;20.90;99.90
2889;DHT22;1453;42.708;23.282;2022-08-19T04:24:12;20.80;99.90
2889;DHT22;1453;42.708;23.282;2022-08-19T04:26:39;20.70;99.90
2889;DHT22;1453;42.708;23.282;2022-08-19T04:29:08;20.70;99.90
2889;DHT22;1453;42.708;23.282;2022-08-19T04:31:40;20.80;99.90
2889;DHT22;1453;42.708;23.282;2022-08-19T04:34:10;20.80;99.90
2889;DHT22;1453;42.708;23.282;2022-08-19T04:36:39;20.90;99.90
2889;DHT22;1453;42.708;23.282;2022-08-19T04:39:15;20.90;99.90
2889;DHT22;1453;42.708;23.282;2022-08-19T04:41:44;20.90;99.90
2889;DHT22;1453;42.708;23.282;2022-08-19T04:44:30;21.00;99.90
2889;DHT22;1453;42.708;23.282;2022-08-19T04:46:57;21.00;99.90
2889;DHT22;1453;42.708;23.282;2022-08-19T04:49:24;21.10;99.90
2889;DHT22;1453;42.708;23.282;2022-08-19T04:51:52;21.20;99.90
2889;DHT22;1453;42.708;23.282;2022-08-19T04:54:20;21.50;99.90
2889;DHT22;1453;42.708;23.282;2022-08-19T04:56:52;21.70;99.90
2889;DHT22;1453;42.708;23.282;2022-08-19T04:59:19;21.70;99.90
2889;DHT22;1453;42.708;23.282;2022-08-19T05:01:45;22.00;99.90
2889;DHT22;1453;42.708;23.282;2022-08-19T05:04:19;22.40;99.90
2889;DHT22;1453;42.708;23.282;2022-08-19T05:06:47;22.70;99.90
2889;DHT22;1453;42.708;23.282;2022-08-19T05:09:14;22.60;99.90
2889;DHT22;1453;42.708;23.282;2022-08-19T05:11:40;22.70;99.90
2889;DHT22;1453;42.708;23.282;2022-08-19T05:14:07;22.70;99.90
2889;DHT22;1453;42.708;23.282;2022-08-19T05:16:33;22.50;99.90
2889;DHT22;1453;42.708;23.282;2022-08-19T05:18:59;22.50;99.90
2889;DHT22;1453;42.708;23.282;2022-08-19T05:21:44;22.40;99.90
2889;DHT22;1453;42.708;23.282;2022-08-19T05:24:29;22.40;99.90
2889;DHT22;1453;42.708;23.282;2022-08-19T05:26:56;22.50;99.90
2889;DHT22;1453;42.708;23.282;2022-08-19T05:29:24;22.50;99.90
2889;DHT22;1453;42.708;23.282;2022-08-19T05:31:52;22.50;99.90
2889;DHT22;1453;42.708;23.282;2022-08-19T05:34:20;22.30;99.90
2889;DHT22;1453;42.708;23.282;2022-08-19T05:36:48;22.20;99.90
2889;DHT22;1453;42.708;23.282;2022-08-19T05:39:18;22.30;99.90
2889;DHT22;1453;42.708;23.282;2022-08-19T05:41:47;22.50;99.90
2889;DHT22;1453;42.708;23.282;2022-08-19T05:44:15;22.60;99.90
2889;DHT22;1453;42.708;23.282;2022-08-19T05:46:46;22.70;99.90
2889;DHT22;1453;42.708;23.282;2022-08-19T05:49:19;23.00;99.90
2889;DHT22;1453;42.708;23.282;2022-08-19T05:51:47;23.20;99.90
2889;DHT22;1453;42.708;23.282;2022-08-19T05:54:13;23.40;99.90
2889;DHT22;1453;42.708;23.282;2022-08-19T05:56:42;23.40;99.90
2889;DHT22;1453;42.708;23.282;2022-08-19T05:59:10;24.00;99.90
2889;DHT22;1453;42.708;23.282;2022-08-19T06:01:41;24.60;99.90
2889;DHT22;1453;42.708;23.282;2022-08-19T06:04:08;25.20;99.90
2889;DHT22;1453;42.708;23.282;2022-08-19T06:06:35;25.80;99.90
2889;DHT22;1453;42.708;23.282;2022-08-19T06:09:03;26.10;99.90
2889;DHT22;1453;42.708;23.282;2022-08-19T06:11:57;26.40;99.90
2889;DHT22;1453;42.708;23.282;2022-08-19T06:14:28;26.30;99.90
2889;DHT22;1453;42.708;23.282;2022-08-19T06:16:56;27.10;99.90
2889;DHT22;1453;42.708;23.282;2022-08-19T06:19:23;27.00;99.40
2889;DHT22;1453;42.708;23.282;2022-08-19T06:21:50;27.40;98.40
2889;DHT22;1453;42.708;23.282;2022-08-19T06:24:23;27.50;96.50
2889;DHT22;1453;42.708;23.282;2022-08-19T06:26:52;28.00;95.50
2889;DHT22;1453;42.708;23.282;2022-08-19T06:29:23;27.70;96.00
2889;DHT22;1453;42.708;23.282;2022-08-19T06:31:55;28.20;94.30
2889;DHT22;1453;42.708;23.282;2022-08-19T06:34:23;28.20;93.90
2889;DHT22;1453;42.708;23.282;2022-08-19T06:36:51;27.30;94.80
2889;DHT22;1453;42.708;23.282;2022-08-19T06:39:20;27.50;95.10
2889;DHT22;1453;42.708;23.282;2022-08-19T06:41:49;28.10;94.20
2889;DHT22;1453;42.708;23.282;2022-08-19T06:44:20;28.80;92.40
2889;DHT22;1453;42.708;23.282;2022-08-19T06:46:47;28.40;92.90
2889;DHT22;1453;42.708;23.282;2022-08-19T06:49:15;28.70;92.10
2889;DHT22;1453;42.708;23.282;2022-08-19T06:51:42;29.10;91.60
2889;DHT22;1453;42.708;23.282;2022-08-19T06:54:10;28.70;91.10
2889;DHT22;1453;42.708;23.282;2022-08-19T06:56:37;28.90;91.30
2889;DHT22;1453;42.708;23.282;2022-08-19T06:59:10;29.10;90.70
2889;DHT22;1453;42.708;23.282;2022-08-19T07:01:49;30.00;90.20
2889;DHT22;1453;42.708;23.282;2022-08-19T07:04:20;30.70;86.80
2889;DHT22;1453;42.708;23.282;2022-08-19T07:06:48;31.20;84.00
2889;DHT22;1453;42.708;23.282;2022-08-19T07:09:16;31.30;82.80
2889;DHT22;1453;42.708;23.282;2022-08-19T07:11:45;31.60;82.20
2889;DHT22;1453;42.708;23.282;2022-08-19T07:14:13;31.80;81.00
2889;DHT22;1453;42.708;23.282;2022-08-19T07:16:39;31.60;81.30
2889;DHT22;1453;42.708;23.282;2022-08-19T07:19:05;31.40;79.00
2889;DHT22;1453;42.708;23.282;2022-08-19T07:21:31;31.40;79.40
2889;DHT22;1453;42.708;23.282;2022-08-19T07:23:59;31.40;79.40
2889;DHT22;1453;42.708;23.282;2022-08-19T07:26:31;32.10;76.50
2889;DHT22;1453;42.708;23.282;2022-08-19T07:28:59;31.30;77.00
2889;DHT22;1453;42.708;23.282;2022-08-19T07:31:27;31.40;77.70
2889;DHT22;1453;42.708;23.282;2022-08-19T07:33:54;31.70;75.50
2889;DHT22;1453;42.708;23.282;2022-08-19T07:36:24;31.90;74.70
2889;DHT22;1453;42.708;23.282;2022-08-19T07:38:58;32.20;74.10
2889;DHT22;1453;42.708;23.282;2022-08-19T07:41:27;32.20;73.80
2889;DHT22;1453;42.708;23.282;2022-08-19T07:44:00;32.20;72.80
2889;DHT22;1453;42.708;23.282;2022-08-19T07:46:33;31.70;74.50
2889;DHT22;1453;42.708;23.282;2022-08-19T07:49:01;32.40;74.20
2889;DHT22;1453;42.708;23.282;2022-08-19T07:51:28;33.30;73.10
2889;DHT22;1453;42.708;23.282;2022-08-19T07:53:54;34.40;71.20
2889;DHT22;1453;42.708;23.282;2022-08-19T07:56:21;34.50;69.30
2889;DHT22;1453;42.708;23.282;2022-08-19T07:58:49;34.60;69.30
2889;DHT22;1453;42.708;23.282;2022-08-19T08:01:23;34.20;67.10
2889;DHT22;1453;42.708;23.282;2022-08-19T08:03:52;34.00;66.50
2889;DHT22;1453;42.708;23.282;2022-08-19T08:06:37;32.40;68.90
2889;DHT22;1453;42.708;23.282;2022-08-19T08:09:36;31.60;71.70
2889;DHT22;1453;42.708;23.282;2022-08-19T08:12:08;32.60;70.40
2889;DHT22;1453;42.708;23.282;2022-08-19T08:14:49;33.30;68.90
2889;DHT22;1453;42.708;23.282;2022-08-19T08:17:18;33.40;68.40
2889;DHT22;1453;42.708;23.282;2022-08-19T08:19:45;33.70;66.20
2889;DHT22;1453;42.708;23.282;2022-08-19T08:22:15;33.20;68.00
2889;DHT22;1453;42.708;23.282;2022-08-19T08:25:05;34.40;65.70
2889;DHT22;1453;42.708;23.282;2022-08-19T08:27:36;35.60;62.80
2889;DHT22;1453;42.708;23.282;2022-08-19T08:30:10;35.80;62.60
2889;DHT22;1453;42.708;23.282;2022-08-19T08:32:40;36.20;61.30
2889;DHT22;1453;42.708;23.282;2022-08-19T08:35:09;35.90;61.50
2889;DHT22;1453;42.708;23.282;2022-08-19T08:37:38;35.70;61.70
2889;DHT22;1453;42.708;23.282;2022-08-19T08:40:10;36.30;60.80
2889;DHT22;1453;42.708;23.282;2022-08-19T08:42:52;36.70;59.80
2889;DHT22;1453;42.708;23.282;2022-08-19T08:45:26;36.70;58.50
2889;DHT22;1453;42.708;23.282;2022-08-19T08:47:53;36.40;58.60
2889;DHT22;1453;42.708;23.282;2022-08-19T08:50:31;35.00;61.70
2889;DHT22;1453;42.708;23.282;2022-08-19T08:53:01;35.90;61.10
2889;DHT22;1453;42.708;23.282;2022-08-19T08:55:30;37.30;60.60
2889;DHT22;1453;42.708;23.282;2022-08-19T08:58:01;37.30;57.40
2889;DHT22;1453;42.708;23.282;2022-08-19T09:00:34;37.70;56.60
2889;DHT22;1453;42.708;23.282;2022-08-19T09:03:05;38.20;55.00
2889;DHT22;1453;42.708;23.282;2022-08-19T09:14:43;38.40;54.40
2889;DHT22;1453;42.708;23.282;2022-08-19T09:17:13;38.80;54.40
2889;DHT22;1453;42.708;23.282;2022-08-19T09:22:16;38.40;52.80
2889;DHT22;1453;42.708;23.282;2022-08-19T09:24:41;37.70;52.40
2889;DHT22;1453;42.708;23.282;2022-08-19T09:27:07;38.20;52.60
2889;DHT22;1453;42.708;23.282;2022-08-19T09:29:34;38.10;52.90
2889;DHT22;1453;42.708;23.282;2022-08-19T09:31:59;38.80;51.80
2889;DHT22;1453;42.708;23.282;2022-08-19T09:34:25;39.30;50.10
2889;DHT22;1453;42.708;23.282;2022-08-19T09:36:51;39.00;50.30
2889;DHT22;1453;42.708;23.282;2022-08-19T09:39:18;38.80;49.90
2889;DHT22;1453;42.708;23.282;2022-08-19T09:41:44;39.00;48.80
2889;DHT22;1453;42.708;23.282;2022-08-19T09:44:10;37.70;49.30
2889;DHT22;1453;42.708;23.282;2022-08-19T09:46:38;37.80;51.00
2889;DHT22;1453;42.708;23.282;2022-08-19T09:49:04;37.90;48.90
2889;DHT22;1453;42.708;23.282;2022-08-19T09:51:31;38.00;49.00
2889;DHT22;1453;42.708;23.282;2022-08-19T09:54:02;37.40;49.80
2889;DHT22;1453;42.708;23.282;2022-08-19T09:56:29;38.30;49.30
2889;DHT22;1453;42.708;23.282;2022-08-19T09:58:58;37.60;49.00
2889;DHT22;1453;42.708;23.282;2022-08-19T10:01:27;37.70;49.20
2889;DHT22;1453;42.708;23.282;2022-08-19T10:03:55;34.80;49.80
2889;DHT22;1453;42.708;23.282;2022-08-19T10:06:24;35.50;49.80
2889;DHT22;1453;42.708;23.282;2022-08-19T10:08:55;36.70;48.30
2889;DHT22;1453;42.708;23.282;2022-08-19T10:11:21;36.90;47.60
2889;DHT22;1453;42.708;23.282;2022-08-19T10:13:47;37.60;47.90
2889;DHT22;1453;42.708;23.282;2022-08-19T10:16:18;38.00;47.30
2889;DHT22;1453;42.708;23.282;2022-08-19T10:18:47;37.70;47.60
2889;DHT22;1453;42.708;23.282;2022-08-19T10:23:50;37.80;49.10
2889;DHT22;1453;42.708;23.282;2022-08-19T10:26:24;38.00;48.80
2889;DHT22;1453;42.708;23.282;2022-08-19T10:28:51;38.20;48.60
2889;DHT22;1453;42.708;23.282;2022-08-19T10:31:20;38.70;47.50
2889;DHT22;1453;42.708;23.282;2022-08-19T10:33:49;38.70;48.10
2889;DHT22;1453;42.708;23.282;2022-08-19T10:36:19;38.00;47.20
2889;DHT22;1453;42.708;23.282;2022-08-19T10:38:50;36.50;49.10
2889;DHT22;1453;42.708;23.282;2022-08-19T10:41:22;36.80;48.70
2889;DHT22;1453;42.708;23.282;2022-08-19T10:43:54;36.90;48.60
2889;DHT22;1453;42.708;23.282;2022-08-19T10:46:22;37.90;48.60
2889;DHT22;1453;42.708;23.282;2022-08-19T10:48:50;39.10;48.00
2889;DHT22;1453;42.708;23.282;2022-08-19T10:51:16;39.40;48.10
2889;DHT22;1453;42.708;23.282;2022-08-19T10:54:01;40.20;47.00
2889;DHT22;1453;42.708;23.282;2022-08-19T10:56:27;39.30;48.20
2889;DHT22;1453;42.708;23.282;2022-08-19T10:59:13;39.60;47.60
2889;DHT22;1453;42.708;23.282;2022-08-19T11:01:42;39.40;46.80
2889;DHT22;1453;42.708;23.282;2022-08-19T11:04:08;37.80;47.40
2889;DHT22;1453;42.708;23.282;2022-08-19T11:06:37;38.20;48.00
2889;DHT22;1453;42.708;23.282;2022-08-19T11:09:04;38.70;47.70
2889;DHT22;1453;42.708;23.282;2022-08-19T11:11:31;38.70;47.90
2889;DHT22;1453;42.708;23.282;2022-08-19T11:14:12;38.60;47.90
2889;DHT22;1453;42.708;23.282;2022-08-19T11:16:41;39.00;48.00
2889;DHT22;1453;42.708;23.282;2022-08-19T11:19:10;39.30;47.30
2889;DHT22;1453;42.708;23.282;2022-08-19T11:21:42;39.20;47.90
2889;DHT22;1453;42.708;23.282;2022-08-19T11:24:12;39.70;47.00
2889;DHT22;1453;42.708;23.282;2022-08-19T11:26:43;40.10;46.60
2889;DHT22;1453;42.708;23.282;2022-08-19T11:29:11;40.50;46.70
2889;DHT22;1453;42.708;23.282;2022-08-19T11:31:40;40.60;46.10
2889;DHT22;1453;42.708;23.282;2022-08-19T11:34:11;39.90;46.00
2889;DHT22;1453;42.708;23.282;2022-08-19T11:36:41;39.40;45.80
2889;DHT22;1453;42.708;23.282;2022-08-19T11:39:12;39.30;46.20
2889;DHT22;1453;42.708;23.282;2022-08-19T11:41:40;39.40;45.70
2889;DHT22;1453;42.708;23.282;2022-08-19T11:44:06;39.60;46.10
2889;DHT22;1453;42.708;23.282;2022-08-19T11:46:34;38.20;46.40
2889;DHT22;1453;42.708;23.282;2022-08-19T11:49:03;37.80;47.00
2889;DHT22;1453;42.708;23.282;2022-08-19T11:51:31;38.00;47.80
2889;DHT22;1453;42.708;23.282;2022-08-19T11:53:58;39.30;47.50
2889;DHT22;1453;42.708;23.282;2022-08-19T11:56:25;39.30;46.90
2889;DHT22;1453;42.708;23.282;2022-08-19T11:58:53;38.70;46.60
2889;DHT22;1453;42.708;23.282;2022-08-19T12:01:21;38.90;47.60
2889;DHT22;1453;42.708;23.282;2022-08-19T12:03:49;39.80;46.90
2889;DHT22;1453;42.708;23.282;2022-08-19T12:06:20;40.90;46.30
2889;DHT22;1453;42.708;23.282;2022-08-19T12:08:52;41.50;45.90
2889;DHT22;1453;42.708;23.282;2022-08-19T12:11:19;41.80;45.20
2889;DHT22;1453;42.708;23.282;2022-08-19T12:13:44;41.90;45.00
2889;DHT22;1453;42.708;23.282;2022-08-19T12:16:26;41.30;45.60
2889;DHT22;1453;42.708;23.282;2022-08-19T12:18:54;41.00;44.00
2889;DHT22;1453;42.708;23.282;2022-08-19T12:21:26;40.30;45.10
2889;DHT22;1453;42.708;23.282;2022-08-19T12:23:55;39.50;45.50
2889;DHT22;1453;42.708;23.282;2022-08-19T12:26:22;38.30;46.90
2889;DHT22;1453;42.708;23.282;2022-08-19T12:28:49;39.50;46.40
2889;DHT22;1453;42.708;23.282;2022-08-19T12:31:16;40.20;45.60
2889;DHT22;1453;42.708;23.282;2022-08-19T12:33:43;40.90;45.20
2889;DHT22;1453;42.708;23.282;2022-08-19T12:36:10;40.10;45.30
2889;DHT22;1453;42.708;23.282;2022-08-19T12:38:38;39.30;45.30
2889;DHT22;1453;42.708;23.282;2022-08-19T12:41:05;38.10;46.20
2889;DHT22;1453;42.708;23.282;2022-08-19T12:43:36;37.10;48.00
2889;DHT22;1453;42.708;23.282;2022-08-19T12:46:04;38.70;47.90
2889;DHT22;1453;42.708;23.282;2022-08-19T12:48:31;40.10;45.70
2889;DHT22;1453;42.708;23.282;2022-08-19T12:50:58;40.70;45.40
2889;DHT22;1453;42.708;23.282;2022-08-19T12:53:24;41.50;44.90
2889;DHT22;1453;42.708;23.282;2022-08-19T12:55:59;39.50;44.80
2889;DHT22;1453;42.708;23.282;2022-08-19T12:58:26;38.00;46.80
2889;DHT22;1453;42.708;23.282;2022-08-19T13:00:53;36.60;47.90
2889;DHT22;1453;42.708;23.282;2022-08-19T13:03:19;36.40;48.90
2889;DHT22;1453;42.708;23.282;2022-08-19T13:05:45;36.10;49.20
2889;DHT22;1453;42.708;23.282;2022-08-19T13:08:11;36.70;49.20
2889;DHT22;1453;42.708;23.282;2022-08-19T13:10:37;38.40;47.80
2889;DHT22;1453;42.708;23.282;2022-08-19T13:13:08;38.80;46.70
2889;DHT22;1453;42.708;23.282;2022-08-19T13:15:36;39.10;46.00
2889;DHT22;1453;42.708;23.282;2022-08-19T13:18:05;39.30;46.40
2889;DHT22;1453;42.708;23.282;2022-08-19T13:20:32;40.10;45.60
2889;DHT22;1453;42.708;23.282;2022-08-19T13:22:59;39.80;46.20
2889;DHT22;1453;42.708;23.282;2022-08-19T13:25:25;39.70;45.80
2889;DHT22;1453;42.708;23.282;2022-08-19T13:27:52;40.30;45.20
2889;DHT22;1453;42.708;23.282;2022-08-19T13:30:19;40.20;45.50
2889;DHT22;1453;42.708;23.282;2022-08-19T13:33:04;39.90;45.20
2889;DHT22;1453;42.708;23.282;2022-08-19T13:35:50;38.80;45.50
2889;DHT22;1453;42.708;23.282;2022-08-19T13:38:23;39.20;45.80
2889;DHT22;1453;42.708;23.282;2022-08-19T13:40:52;38.60;46.50
2889;DHT22;1453;42.708;23.282;2022-08-19T13:43:20;39.20;46.30
2889;DHT22;1453;42.708;23.282;2022-08-19T13:45:49;40.00;45.80
2889;DHT22;1453;42.708;23.282;2022-08-19T13:48:19;39.40;45.20
2889;DHT22;1453;42.708;23.282;2022-08-19T13:50:45;38.90;45.30
2889;DHT22;1453;42.708;23.282;2022-08-19T13:53:14;38.40;46.10
2889;DHT22;1453;42.708;23.282;2022-08-19T13:55:41;38.20;46.90
2889;DHT22;1453;42.708;23.282;2022-08-19T13:58:09;38.50;46.50
2889;DHT22;1453;42.708;23.282;2022-08-19T14:00:38;38.10;46.10
2889;DHT22;1453;42.708;23.282;2022-08-19T14:03:08;38.30;46.50
2889;DHT22;1453;42.708;23.282;2022-08-19T14:05:35;38.70;46.00
2889;DHT22;1453;42.708;23.282;2022-08-19T14:08:01;37.50;46.70
2889;DHT22;1453;42.708;23.282;2022-08-19T14:10:28;37.00;47.30
2889;DHT22;1453;42.708;23.282;2022-08-19T14:12:58;38.10;47.10
2889;DHT22;1453;42.708;23.282;2022-08-19T14:15:26;39.10;46.20
2889;DHT22;1453;42.708;23.282;2022-08-19T14:17:53;38.50;45.70
2889;DHT22;1453;42.708;23.282;2022-08-19T14:20:20;38.30;45.80
2889;DHT22;1453;42.708;23.282;2022-08-19T14:22:47;38.10;46.30
2889;DHT22;1453;42.708;23.282;2022-08-19T14:25:25;38.30;46.10
2889;DHT22;1453;42.708;23.282;2022-08-19T14:27:53;38.30;45.70
2889;DHT22;1453;42.708;23.282;2022-08-19T14:30:26;37.80;46.60
2889;DHT22;1453;42.708;23.282;2022-08-19T14:32:58;37.70;46.90
2889;DHT22;1453;42.708;23.282;2022-08-19T14:35:26;37.70;46.70
2889;DHT22;1453;42.708;23.282;2022-08-19T14:37:53;37.60;47.40
2889;DHT22;1453;42.708;23.282;2022-08-19T14:40:20;37.30;47.50
2889;DHT22;1453;42.708;23.282;2022-08-19T14:42:55;37.60;47.60
2889;DHT22;1453;42.708;23.282;2022-08-19T14:45:25;37.90;47.30
2889;DHT22;1453;42.708;23.282;2022-08-19T14:47:52;38.40;46.50
2889;DHT22;1453;42.708;23.282;2022-08-19T14:50:19;38.20;47.50
2889;DHT22;1453;42.708;23.282;2022-08-19T14:52:46;37.60;46.70
2889;DHT22;1453;42.708;23.282;2022-08-19T14:55:13;37.10;48.40
2889;DHT22;1453;42.708;23.282;2022-08-19T14:57:41;37.10;47.30
2889;DHT22;1453;42.708;23.282;2022-08-19T15:00:08;37.20;48.10
2889;DHT22;1453;42.708;23.282;2022-08-19T15:02:41;37.60;47.40
2889;DHT22;1453;42.708;23.282;2022-08-19T15:05:09;37.80;46.40
2889;DHT22;1453;42.708;23.282;2022-08-19T15:07:36;37.30;47.30
2889;DHT22;1453;42.708;23.282;2022-08-19T15:10:04;36.80;48.00
2889;DHT22;1453;42.708;23.282;2022-08-19T15:12:33;37.10;48.20
2889;DHT22;1453;42.708;23.282;2022-08-19T15:15:00;36.90;48.20
2889;DHT22;1453;42.708;23.282;2022-08-19T15:17:26;36.80;48.00
2889;DHT22;1453;42.708;23.282;2022-08-19T15:19:52;36.70;48.50
2889;DHT22;1453;42.708;23.282;2022-08-19T15:22:18;36.00;48.80
2889;DHT22;1453;42.708;23.282;2022-08-19T15:24:43;35.50;49.80
2889;DHT22;1453;42.708;23.282;2022-08-19T15:27:12;35.20;51.50
2889;DHT22;1453;42.708;23.282;2022-08-19T15:29:38;34.80;51.40
2889;DHT22;1453;42.708;23.282;2022-08-19T15:32:06;34.80;52.30
2889;DHT22;1453;42.708;23.282;2022-08-19T15:34:33;34.80;52.10
2889;DHT22;1453;42.708;23.282;2022-08-19T15:37:00;34.60;51.80
2889;DHT22;1453;42.708;23.282;2022-08-19T15:39:27;34.20;53.50
2889;DHT22;1453;42.708;23.282;2022-08-19T15:41:52;34.10;53.40
2889;DHT22;1453;42.708;23.282;2022-08-19T15:44:19;33.70;53.30
2889;DHT22;1453;42.708;23.282;2022-08-19T15:46:47;33.80;53.30
2889;DHT22;1453;42.708;23.282;2022-08-19T15:49:15;34.00;53.00
2889;DHT22;1453;42.708;23.282;2022-08-19T15:51:44;33.70;53.10
2889;DHT22;1453;42.708;23.282;2022-08-19T15:54:14;33.90;52.90
2889;DHT22;1453;42.708;23.282;2022-08-19T15:56:42;34.00;52.50
2889;DHT22;1453;42.708;23.282;2022-08-19T15:59:26;34.10;53.50
2889;DHT22;1453;42.708;23.282;2022-08-19T16:02:11;33.90;53.60
2889;DHT22;1453;42.708;23.282;2022-08-19T16:04:56;33.50;53.40
2889;DHT22;1453;42.708;23.282;2022-08-19T16:07:40;33.30;53.20
2889;DHT22;1453;42.708;23.282;2022-08-19T16:10:07;33.10;54.40
2889;DHT22;1453;42.708;23.282;2022-08-19T16:12:33;33.00;54.40